Classement Nom Club Nat. JG Temps Catég cla-cat dossard
1 Biteaud Franck Geispolsheim FRA 1972 00:33:37 M30 1 533
2 Becker Nicolas RAC Wissembourg FRA 1987 00:34:07 MJA 1 4
3 Westenhoeffer Fabrice Espace Marathon FRA 1970 00:34:30 M35 1 444
4 Bölts Udo TUS Heltersberg 1966 00:34:57 M40 1 507
5 Labeaudie Yannick Team Espace Marathon FRA 1969 00:35:08 M35 2 698
6 Grados Andre Athle Saiur Jesmin FRA 1953 00:35:25 M50 1 492
7 Nerding Rainer TV Hatzenbühl 1968 00:35:44 M35 3 6
8 Jäger Uwe TV Bad Bergzabern 1965 00:35:53 M40 2 8
9 Guittet Denis LA Saline (Soultz) FRA 1969 00:36:06 M35 4 209
10 Endrulat Bastian TV Bad Bergzabern 1961 00:36:43 M45 1 9
11 Violi Patrick AS Gunther FRA 1957 00:36:55 M45 2 534
12 Saad Mekki TV Offenbach 1965 00:37:01 M40 3 543
13 Cherif Faouzi SC La Wantzenau FRA 1969 00:37:04 M35 5 2679
14 Schwartz Jean Marie LA Saline (Soultz) FRA 1958 00:37:23 M45 3 51
15 Sternkopf Stefan Worcester A.C. GBR 1966 00:37:39 M40 4 452
16 Weber Marc ANA SG Wantzenau FRA 1967 00:37:43 M35 6 616
17 Lengrais Guillaume ASPTT Strasbourg FRA 1977 00:37:48 MHK 1 424
18 Hess Achim TV Bad Bergzabern 1970 00:38:01 M35 7 143
19 Moog Paul VCNA FRA 1969 00:38:21 M35 8 642
20 Stephan Jean-Michel AS Gunther-Walter FRA 1979 00:38:25 MHK 2 325
21 Boellinger Bruno ANA RAC Wissembourg FRA 1959 00:38:28 M45 4 150
22 Bourderbane Farid Strassbourg FRA 1968 00:38:29 M35 9 663
23 Poyet Christine RAC Wissembourg FRA 1982 00:38:30 WHK 1 3
24 Stephan Fabrice LA Saline (Soultz) FRA 1979 00:38:31 MHK 3 419
25 Ehrle Klaus LSG Karlsruhe 1963 00:38:41 M40 5 511
26 Vollmer Olivier ANA Lauterbourg FRA 1976 00:38:54 M30 2 450
27 Woog Valentin Offendorf FRA 1960 00:38:59 M45 5 472
28 Mendorf Edgar SG Stern Rastatt 1960 00:39:02 M45 6 417
29 Ritter Frank TUS Niederkirchen 1964 00:39:11 M40 6 461
30 Hetzel Albert ISRI France FRA 1962 00:39:14 M40 7 601
31 Eissenmann Gerd Motorradfreunde Rechtenbach 1959 00:39:15 M45 7 665
32 Braun J.-Marc ASL Robertsau FRA 1966 00:39:35 M40 8 625
33 Basch Raymond ANA LAC Lauterbourg 1954 00:39:38 M50 2 515
34 Husser Jacques Blaesheim FRA 1966 00:40:01 M40 9 180
35 Maix Laurent AFCF Alsace FRA 1964 00:40:08 M40 10 571
36 Jean Olive Paul Burstner FRA 1958 00:40:14 M45 8 167
37 Beyer Pascal Saline Soultz FRA 1972 00:40:18 M30 3 560
38 Moerckel Fabrice Kutzenhausen 1976 00:40:23 M30 4 503
39 Wolter Heiner VT Zweibrücken 1959 00:40:27 M45 9 623
40 Issellay Brahim Strasbourg FRA 1983 00:40:30 MHK 4 172
41 Simon Laurent ASPTT Strasbourg FRA 1970 00:40:38 M35 10 7
42 Hamroun Mohamed ASPTT Strasbourg FRA 1956 00:40:45 M50 3 660
43 Müller Stefan LLG Drei Buchen 1966 00:40:48 M40 11 638
44 Neichel Martin RAC Wissembourg FRA 1955 00:40:51 M50 4 429
45 Meyer Martin Schuttern 1976 00:40:52 M30 5 278
46 Voltz Serge Burstner FRA 1966 00:41:00 M40 12 165
47 Buchwald Achim mein-erster-marathon.de 1958 00:41:03 M45 10 286
48 Lehmann Frederic Strassbourg FRA 1980 00:41:06 MHK 5 694
49 Schmaltz Jean-Marc Triathlon Bischwiller FRA 1956 00:41:08 M50 5 521
50 Boellinger Patrick TV Bad Bergzabern FRA 1954 00:41:15 M50 6 228
51 Zangmeister Uwe LLG Drei Buchen 1970 00:41:16 M35 11 627
52 Masser Michael LT Stein 1968 00:41:19 M35 12 536
53 Rendina Bruno Soufflenheim FRA 1966 00:41:28 M40 13 609
54 Remy Vincent Beinheim 1967 00:41:31 M35 13 488
55 Mauduit Eric GM Strasbourg FRA 1966 00:41:36 M40 14 2686
56 Schimpf Werner TV Bad Bergzabern 1946 00:41:36 M60 1 126
57 Schneider Christophe Pompiers Seebach FRA 1960 00:41:38 M45 11 322
58 Mussler Reinhard mein-erster-marathon.de 1959 00:41:38 M45 12 2
59 Kerth Volker Steinfeld 1964 00:41:39 M40 15 499
60 Eisenmann Volker SG Stern 1961 00:41:42 M45 13 670
61 Hoff Klaus SG Stern 1962 00:41:43 M40 16 669
62 Hoffmeyer Jean-Francois Climbach FRA 1971 00:41:45 M35 14 299
63 Popp Christian Karlsruhe 1968 00:41:46 M35 15 344
64 Schäfer Markus memler.de 1971 00:41:54 M35 16 624
65 Schuster Thierry Les Furieux FRA 1970 00:41:57 M35 17 324
66 Burgard Marc AFCF Alsace FRA 1965 00:41:57 M40 17 570
67 Thelen Jürgen Selstat FRA 1965 00:41:58 M40 18 473
68 Messner Christian Soultz sous Forets FRA 1970 00:42:00 M35 18 258
69 Witz Frauck ANA Lauterbourg FRA 1972 00:42:04 M30 6 449
70 Weisse Henri Wissembourg FRA 1955 00:42:08 M50 7 631
71 Westermeyer Christian Burstner FRA 1965 00:42:14 M40 19 161
72 Sitter Francis ANA FC Haguenau FRA 1967 00:42:17 M35 19 385
73 Heitz Frank LLG Drei Buchen 1964 00:42:20 M40 20 474
74 Mussler Agnes mein-erster-marathon.de 1958 00:42:21 W45 1 1
75 Dennerle Martin LGD Schwegenheim 1986 00:42:27 MHK 6 650
76 Dietrich Eric LLG Drei Buchen 1965 00:42:32 M40 21 66
77 Klein Heinz Georg TV Huchem Stammeln 1956 00:42:38 M50 8 218
78 Zaepfel Jean-Marc CCSA Soufflenheim FRA 1960 00:42:41 M45 14 257
79 Kuszyk Paul Neulingen 1961 00:42:43 M45 15 74
80 Mehr Jean-Jacques Herrlisheim FRA 1961 00:43:03 M45 16 610
81 Maire Olivier Gambsheim FRA 1958 00:43:04 M45 17 565
82 Remy Nadia Beinheim 1968 00:43:04 W35 1 487
83 Rouviere Bernard Oberhoffen les Wissemb FRA 1962 00:43:05 M40 22 321
84 Muller Sebastien Chene de l'este FRA 1968 00:43:06 M35 20 584
85 Ullrich Philipp TV Bad Bergzabern 1992 00:43:07 MJB 1 531
86 Hoffmann Erwin TV Bad Bergzabern 1958 00:43:08 M45 18 120
87 Schopp Bernard Schleithal FRA 1953 00:43:11 M50 9 323
88 Siefert Jutta LSG Karlsruhe 1969 00:43:16 W35 2 345
89 Anthes Fritz TV Bad Bergzabern 1960 00:43:17 M45 19 117
90 Brinster Dominique LA Saline (Soultz) FRA 1973 00:43:18 M30 7 388
91 Muller Nicolas Chene de L`est FRA 1977 00:43:24 MHK 7 532
92 Weissbeck Olivier Seebach FRA 1971 00:43:26 M35 21 328
93 Vogel Rudi SV Werschweiler 1945 00:43:29 M60 2 495
94 Ludwig Heiko memler.de 1963 00:43:31 M40 23 341
95 Heinrich Patrick Hagenau FRA 1962 00:43:32 M40 24 672
96 Bersch Patrick ASL Robertsau FRA 1957 00:43:42 M45 20 289
97 Knaebel Julien Profil Alsace FRA 1988 00:43:46 MJA 2 183
98 Neuhart Thomas Südpfalz Therme BZA 1963 00:43:48 M40 25 420
99 Walther Laurent Burstner FRA 1969 00:43:51 M35 22 168
100 Paul Dieter SG Stern 1960 00:43:52 M45 21 666
101 Naab Günter SG Stern 1960 00:43:52 M45 22 667
102 Zschaubitz Gerhard TV Bad Bergzabern 1961 00:43:53 M45 23 116
103 Schauinger Raymond La Saline FRA 1963 00:43:58 M40 26 563
104 Lux Michael LG Hof 1964 00:44:00 M40 27 680
105 Fischer Manfred KSV-LWT-Kevelaer 1960 00:44:02 M45 24 406
106 Lang Günther IGL Reutlingen 1956 00:44:05 M50 10 330
107 Kleinert Dominique SG Stern Rastatt 1964 00:44:07 M40 28 285
108 Theilmann Rolf TV Bad Bergzabern 1953 00:44:09 M50 11 124
109 Hoffmeyer Yves Weiler FRA 1967 00:44:13 M35 23 300
110 Knauf Josef Freinsheim 1956 00:44:14 M50 12 25
111 Pollok Andreas Rheinstetten 1991 00:44:16 MJB 2 17
112 Bendel-Kuntz Jutta LG SV KLingenmünster 1960 00:44:17 W45 2 482
113 Panic Petar mein-erster-marathon.de 1965 00:44:20 M40 29 612
114 Nicabou Steve Strassbourg FRA 1968 00:44:25 M35 24 522
115 Linck Franck AS CPAM Strasbourg FRA 1980 00:44:26 MHK 8 425
116 Kloos Gerhard Ingelheim 1960 00:44:27 M45 25 37
117 Linger Herve AS Seebach FRA 1968 00:44:28 M35 25 186
118 Ebelshäuser Klaus TV Naturfreunde Pirmasens 1962 00:44:31 M40 30 198
119 Schwartz Franck Wissembourg FRA 1967 00:44:39 M35 26 602
120 Willinger Veronique Reichshoffen FRA 1968 00:44:43 W35 3 329
121 Keller Michel Dalhunden FRA 1968 00:44:45 M35 27 303
122 Neu Günter LAG Obere Murg 1953 00:44:46 M50 13 133
123 Zeitvogel Andreas SG Stern Rastatt 1971 00:44:49 M35 28 259
124 Gulyas Hans LSG Karlsruhe 1949 00:44:55 M55 1 678
125 Porto Inocencio CLSP Seltz FRA 1968 00:45:01 M35 29 547
126 Linder Jochen MNL Bischweier 1970 00:45:03 M35 30 281
127 Brenckle Bernard .. FRA 1970 00:45:04 M35 31 517
128 Trapp Wolfgang Bundenthal 1961 00:45:07 M45 26 463
129 Meyer Didier Oberlauterbach 1967 00:45:13 M35 32 87
130 Renz Stefan FSV Offenbach 1981 00:45:16 MHK 9 549
131 Friedel Janine LLG Drei Buchen 1980 00:45:17 WHK 2 508
132 Anzilutti Michael Schweighofen 1972 00:45:17 M30 8 153
133 Geller Robert TV Eutingen 1963 00:45:19 M40 31 372
134 Bacher Jean-Marc Cleebourg FRA 1968 00:45:22 M35 33 288
135 Albensius Francais La Saline FRA 1955 00:45:23 M50 14 664
136 Sarter Rainer LLG Drei Buchen 1970 00:45:23 M35 34 271
137 Braun Dietmar memler.de 1960 00:45:31 M45 27 459
138 Moritz Brigitte TV Rastatt-Rheinau 1952 00:45:32 W50 1 337
139 Kling Steffen LT Karlstern 1974 00:45:34 M30 9 73
140 Pilatus André memler.de 1969 00:45:39 M35 35 72
141 Dubois Jens Hinterweidenthal 1975 00:45:46 M30 10 155
142 Zerr Franck OH Morsbronn FRA 1972 00:45:50 M30 11 434
143 Heinrich Claude Masterfoods FRA 1956 00:45:51 M50 15 514
144 Schiederer Klaus LT Uni Kaiserslautern 1956 00:45:57 M50 16 373
145 Streitl Peter LLG Drei Buchen 1967 00:46:00 M35 36 505
146 Meyer Thomas TV Naturfreunde Pirmasens 1960 00:46:01 M45 28 201
147 Zerr Yves OH Morsbronn FRA 1969 00:46:04 M35 37 266
148 Seitz Herve ASCEE 67 FRA 1964 00:46:04 M40 32 187
149 Bogenfeld Lothar TV Rheinzabern 1961 00:46:05 M45 29 530
150 Kaiser Jeremia ASL Rugby Lauterbourg FRA 1988 00:46:07 MJA 3 527
151 Hinkel Friedrich TV Lemberg 1940 00:46:08 M65 1 608
152 Reymund Eric Wingersheim FRA 1970 00:46:09 M35 38 317
153 Stephan Andreas LT Karlsruhe 1963 00:46:12 M40 33 231
154 Knaebel Sebastien Profil Alsace FRA 1975 00:46:14 M30 12 184
155 Kronenwett Nicolai BG Karlsbad 1989 00:46:17 MJB 3 79
156 Schmitt Olaf Alzey 1968 00:46:19 M35 39 196
157 Dockendorf Dieter LG MuLi 1966 00:46:28 M40 34 538
158 Vossmeier Eckbert SV Langensteinbach 1956 00:46:29 M50 17 619
159 Lohr Sebastien Altenstadt FRA 1968 00:46:29 M35 40 311
160 Zepp Christoph TV Bad Bergzabern 1979 00:46:31 MHK 10 242
161 Ferdinand Adrian Nonnweiler 1981 00:46:32 MHK 11 235
162 Meyer Fabien Burstner FRA 1969 00:46:33 M35 41 173
163 Kress Michael Homburg 1973 00:46:36 M30 13 555
164 Linck Gerard AS CPAM Strasbourg FRA 1953 00:46:37 M50 18 426
165 Kaehny Franck AS Hunspach FRA 1972 00:46:39 M30 14 603
166 Bisch Martin SG Stern Gaggenau 1990 00:46:40 MJB 4 206
167 Burrer Rudi SFG Serres 1955 00:46:44 M50 19 529
168 Markmann Jürgen Saarbrücken 1974 00:46:49 M30 15 544
169 Schiff Martin Wantzenau FRA 1972 00:46:50 M30 16 525
170 Schütz Jürgen TV Bad Bergzabern 1955 00:46:52 M50 20 600
171 Imhoff Andreas TV Bad Bergzabern 1959 00:46:56 M45 30 118
172 Schulz Hans Peter TV Bad Bergzabern 1962 00:46:58 M40 35 475
173 Suss Christophe OH Morsbronn FRA 1967 00:46:58 M35 42 326
174 Kronenwett Stefan HC Karlsbad 1986 00:46:59 MHK 12 78
175 Joerger Andre Wissembourg FRA 1951 00:47:01 M55 2 506
176 Jourdan Achim TV Kieselbronn 1960 00:47:01 M45 31 22
177 Gomez Carole Reichshoffen FRA 1964 00:47:04 W40 1 293
178 Dietz Wolfgang Bad Bergzabern 1965 00:47:06 M40 36 331
179 Schröter Bernhard Gernsbach 1967 00:47:09 M35 43 682
180 Schimpf Walter TV Bad Bergzabern 1946 00:47:10 M60 3 125
181 Acker Thomas Godramstein 1964 00:47:13 M40 37 146
182 Granger Andre Forstheim FRA 1948 00:47:16 M55 3 537
183 Walther Claude ANA/RAC Wissembourg FRA 1985 00:47:17 WHK 3 446
184 Knaebel Robert Profil Alsace FRA 1963 00:47:20 M40 38 185
185 Motz Freddy RAC Wissembourg FRA 1958 00:47:24 M45 32 312
186 Hohmann Rolf ASV Landau 1943 00:47:25 M60 4 484
187 Cardona Jean Michel RT Schweighouse FRA 1957 00:47:25 M45 33 535
188 Weber Philippe Les furieux FRA 1972 00:47:27 M30 17 655
189 Hoffmann Thomas TV Bad Bergzabern 1958 00:47:28 M45 34 119
190 Messmer Christophe Wissembourg FRA 1970 00:47:32 M35 44 661
191 Courtade Vincent OH Morsbronn FRA 1965 00:47:39 M40 39 526
192 Billon Laurent AS CPAM Strasbourg FRA 1969 00:47:40 M35 45 160
193 Zepp Stephan TV Bad Bergzabern 1978 00:47:42 MHK 13 241
194 Schmidt Siegmar .. 1962 00:47:44 M40 40 460
195 Brunck Arno SV Oberotterbach 1962 00:47:45 M40 41 131
196 Mathias Gregor Haguenau FRA 1971 00:47:46 M35 46 175
197 Schniers Martina mein-erster-marathon.de 1972 00:47:47 W30 1 362
198 Brossart Elvira TV Bad Bergzabern 1961 00:47:48 W45 3 105
199 Hoffmann Egbert LG SV Klingenmünster 1968 00:47:55 M35 47 509
200 Iffer Marcel Kaltenhouse FRA 1961 00:47:56 M45 35 545
201 Girke Bodo LG Kapellen-Drusweiler 1957 00:47:58 M45 36 634
202 Obernesser Denis Schleithal FRA 1955 00:48:01 M50 21 313
203 Barth Rolf TV Bad Bergzabern 1941 00:48:02 M65 2 442
204 Ungerer Ernest Hunspach FRA 1949 00:48:02 M55 4 433
205 Baier Karl Josef Siemens Laufteam 1965 00:48:03 M40 42 512
206 Reuter Thorsten Hechelboys 1969 00:48:04 M35 48 20
207 Wegmann Elisabeth LLG Drei Buchen 1962 00:48:06 W40 2 620
208 Iwanicki Marcel Worms 1990 00:48:11 MJB 5 215
209 Mertz Thomas TV Naturfreunde Pirmasens 1963 00:48:15 M40 43 199
210 Schneider Petra LG MuLi 1971 00:48:17 W35 4 480
211 Scherrer Johannes SG Großfischlingen 1955 00:48:19 M50 22 144
212 Tyrolt Stefan TVM Murrhardt 1962 00:48:19 M40 44 629
213 Franck Sandrine Riedseltz FRA 1970 00:48:20 W35 5 559
214 Hofmann Wolfgang Hatzenbühl 1958 00:48:21 M45 37 338
215 Knöller Gerhard Gernsbach 1952 00:48:22 M50 23 60
216 Appelt Dirk memler.de 1967 00:48:22 M35 49 691
217 Knittel Daniel Altenstadt FRA 1966 00:48:25 M40 45 306
218 Hoffmann Bernd LG Rülzheim 1963 00:48:25 M40 46 500
219 Toepfer Walter SFG Serres 1947 00:48:28 M55 5 681
220 Simon Gerhard SV Oberotterbach 1958 00:48:29 M45 38 554
221 Schulz Reinhard LG MuLi 1953 00:48:30 M50 24 539
222 Jochim Klaus TV Herxheim 1938 00:48:31 M65 3 62
223 Job Verena TV Offenbach 1987 00:48:32 WJA 1 268
224 Jacob Philippe Altenstadt FRA 1961 00:48:35 M45 39 301
225 Regitz Erika TV Denzlingen 1946 00:48:39 W60 1 284
226 Henkenhaf Verena memler.de 1963 00:48:39 W40 3 247
227 Neichel Robert Mothern FRA 1954 00:48:41 M50 25 335
228 Bittmann Matthias LLG Drei Buchen 1976 00:48:43 M30 18 635
229 Meyer Lucien . FRA 1959 00:48:44 M45 40 626
230 Ball Patrick Rittershoffen FRA 1963 00:48:44 M40 47 632
231 Reinwalt Andre FC Soultz s. Forets FRA 1956 00:48:50 M50 26 384
232 Iffrig Etienne RAC Wissembourg FRA 1949 00:48:50 M55 6 652
233 Hemmerle Francis Schleithal FRA 1958 00:48:51 M45 41 423
234 Will Bernd Landau 1968 00:48:53 M35 50 24
235 Staedtler Elke TV Rheinzabern 1959 00:48:54 W45 4 277
236 Eglin Yannick TUS Schaidt 1977 00:48:55 MHK 14 520
237 Schöffel Peter LG Pfinztal 1950 00:48:57 M55 7 282
238 Wander Lukas TV Bad Bergzabern 1991 00:49:00 MJB 6 272
239 Laux Thomas TV Hayna 1962 00:49:01 M40 48 679
240 Engel Jörg TV Bad Bergzabern 1968 00:49:02 M35 51 435
241 Maier-Collin Mikael Karlsruhe 1974 00:49:04 M30 19 276
242 Wander Volker TV Bad Bergzabern 1960 00:49:04 M45 42 273
243 Reisch Franz Racer 1966 00:49:06 M40 49 519
244 Freund Karen Dresden 1980 00:49:06 WHK 4 227
245 Kreutzberger Thomas Profil Alsace FRA 1980 00:49:10 MHK 15 176
246 Pappalardo Carlo TV Bad Bergzabern 1964 00:49:12 M40 50 115
247 Lauth Florian Rechtenbach 1987 00:49:16 MJA 4 558
248 Martin Richard ANA FC JAB FRA 1953 00:49:19 M50 27 477
249 Burkhart Philipp LAC Dahn 1991 00:49:23 MJB 7 677
250 Schröter Hans-Henning LT Möbel Ehrmann 1964 00:49:24 M40 51 690
251 Reuter Roy Hechelboys 1969 00:49:26 M35 52 21
252 Heintz Cathie La Saline FRA 1963 00:49:27 W40 4 478
253 Huebner Monique TG Ötigheim 1952 00:49:28 W50 2 145
254 Braun Nicole LA Saline (Soultz) FRA 1951 00:49:31 W55 1 290
255 Vogel Jacques Schleithal FRA 1957 00:49:31 M45 43 613
256 Weisgerber Joseph Schleithal FRA 1958 00:49:32 M45 44 443
257 Keller Werner Feuerwehr Bruchweiler 1960 00:49:32 M45 45 676
258 Burck Sebastien Burstner FRA 1977 00:49:33 MHK 16 159
259 Haßelwander Jürgen TV Bad Bergzabern 1980 00:49:33 MHK 17 111
260 Hildebrandt Rudolf LF Naheland 1936 00:49:34 M70 1 617
261 Perseke Paul TV Bad Bergzabern 1949 00:49:39 M55 8 641
262 Baier Andreas Karlsruhe 1970 00:49:42 M35 53 42
263 Amann Noco TC Waldbronn 1990 00:49:43 MJB 8 486
264 Knittel Bernard Oberhoffen les Wissemb FRA 1955 00:49:46 M50 28 305
265 Melcher Werner RSV Forchheim 1943 00:49:47 M60 5 48
266 Schneider Daniel Schachabteilung Vimbuch 1960 00:49:50 M45 46 248
267 Huck Thomas Landau 1964 00:49:51 M40 52 683
268 Kolb Dietmar Kandel 1962 00:49:52 M40 53 695
269 Scholz Aura mein-erster-marathon.de 1969 00:49:53 W35 6 366
270 Van Venrooy Walter SG Fischbach 1957 00:49:54 M45 47 466
271 Reinagel Jean-Claude Schaeffler France FRA 1959 00:49:56 M45 48 316
272 Pfaffmann Alexander TV Bad Bergzabern 1958 00:50:00 M45 49 142
273 Schewydt Michael Motorradfreunde Rechtenbach 1964 00:50:04 M40 54 671
274 Zepp Otto TV Bad Bergzabern 1953 00:50:06 M50 29 240
275 Riedinger Jean-Luc Neewiller FRA 1965 00:50:10 M40 55 318
276 Hickel Laurent Drachenbronn FRA 1967 00:50:15 M35 54 298
277 Kolb Patrick SV Schweighofen 1969 00:50:19 M35 55 662
278 Sprotte Rainer Oberotterbach 1954 00:50:20 M50 30 566
279 Elischer Reiner LG Schwabe 1959 00:50:26 M45 50 646
280 Ipolt Andreas Heidelberg 1968 00:50:27 M35 56 53
281 Paulitsch Christopher Karlsruhe 1976 00:50:28 M30 20 239
282 Mildenberger Dorota TV Herxheim 1968 00:50:30 W35 7 149
283 Klippel Peter ASV Kandel 1965 00:50:35 M40 56 568
284 Pfenninger Horst TSG Niefern 1937 00:50:39 M65 4 46
285 Keppel Theo LLG Drei Buchen 1949 00:50:41 M55 9 633
286 Masser Michael Budo-Club Zeiskam 1965 00:50:42 M40 57 18
287 Wagner Runald Kalkar 1948 00:50:43 M55 10 237
288 Waldschmitt Klemens Venningen 1962 00:50:46 M40 58 540
289 Ginsbach Dr. Andreas Heidelberg 1959 00:50:48 M45 51 614
290 Poyet Francois Wissembourg FRA 1987 00:50:50 MJA 5 432
291 Trapp Angelika Bundenthal 1972 00:50:51 W30 2 464
292 Herberger Theo LG Rülzheim 1937 00:50:55 M65 5 513
293 Kienel Enrico Schweigen-Rechtenbach 1993 00:50:58 MJB 9 398
294 Cuntz Karlheinz LG Kapellen-Drusweiler 1955 00:50:59 M50 31 287
295 Stattmüller Jürgen LG Kapellen-Drusweiler 1966 00:51:00 M40 59 703
296 Hoffmann Ingrid TV Offenbach 1942 00:51:01 W60 2 436
297 Frey Michel Haguenau FRA 1957 00:51:01 M45 52 421
298 Böhm Harald Oberotterbach 1957 00:51:02 M45 53 485
299 Höfler Thomas LLG Drei Buchen 1964 00:51:04 M40 60 483
300 Hain Doris VT Zweibrücken 1961 00:51:04 W45 5 622
301 Maurer Ludwig SG Stern Gaggenau 1944 00:51:11 M60 6 640
302 Kniesel Horst LG Rülzheim 1944 00:51:12 M60 7 135
303 Sitter Chantal ANA FC Haguenau FRA 1967 00:51:16 W35 8 386
304 Walter Klaus TV Bad Bergzabern 1956 00:51:17 M50 32 693
305 Korn Ralf ITWM Kaiserslautern 1963 00:51:19 M40 61 269
306 Pollok Richard Rheinstetten 1956 00:51:20 M50 33 16
307 Clauss Regis Knolbock Team 1980 00:51:22 MHK 18 453
308 Hienzsch Jürgen Bad Bergzabern 1966 00:51:23 M40 62 55
309 Loth Emmanuel KNolbock Team 1976 00:51:23 M30 21 455
310 Loth Alexandre Knolbock Team 1978 00:51:24 MHK 19 456
311 Hoffmann Birgit TV Bad Bergzabern 1961 00:51:25 W45 6 104
312 Martin de Claire Bischwiller FRA 1956 00:51:28 W50 3 476
313 Bantz Hans TUS 08 Schaidt 1956 00:51:32 M50 34 688
314 Reininger Rudi LG Kapellen-Drusweiler 1946 00:51:33 M60 8 493
315 Urban Eduard SV Freistett 1962 00:51:34 M40 63 224
316 Naab Christine Kapellen-Drusweiler 1965 00:51:38 W40 5 668
317 Joram Bernd Klingenmünster 1950 00:51:45 M55 11 238
318 Brecht Gerhard TV Germania St. Ilgen 1937 00:51:47 M65 6 645
319 Ittensohn Bernd TV Bad Bergzabern 1951 00:51:55 M55 12 567
320 Metzger Markus Wörth 1976 00:52:04 M30 22 203
321 Althoff Julia memler.de 1974 00:52:06 W30 3 236
322 Grosstephan Dominique CPAM Strasbourg FRA 1960 00:52:07 M45 54 294
323 Zimmermann Nico TVE Weiher 1984 00:52:08 MHK 20 77
324 Jochim Maria TV Herxheim 1945 00:52:12 W60 3 61
325 Lauth Gerard France ADO FRA 1937 00:52:17 M65 7 310
326 Braun Gertrud TV Bad Bergzabern 1957 00:52:21 W45 7 107
327 Kerscher Thomas Ludwigshafen Runners 1957 00:52:22 M45 55 409
328 Dennerle Theo LGD Schwegenheim 1955 00:52:28 M50 35 651
329 Trapp Horst Bundenthal 1958 00:52:29 M45 56 88
330 Paul Anfrea KSV-LWT-Kevelaer 1969 00:52:31 W35 9 404
331 Edighoffer Roland Oberhoffen les Wissemb FRA 1960 00:52:32 M45 57 292
332 Barth Marlies TV Bad Bergzabern 1947 00:52:33 W55 2 441
333 Spielmann Franck LA Saline (Soultz) FRA 1990 00:52:39 MJB 10 389
334 Paly Eric .. FRA 1975 00:52:45 M30 23 516
335 Dübon Jürgen Wörth 1963 00:52:45 M40 64 656
336 Goetzmann Frederic Rittershoffen FRA 1938 00:52:46 M65 8 158
337 Steinhoff Roland LBS-Bw Karlsruhe 1950 00:52:53 M55 13 390
338 Husser Angelique Blaesheim FRA 1968 00:52:55 W35 10 179
339 Trunzer Hubert Schroff Sport FRA 1958 00:52:57 M45 58 628
340 Logel Mathieu LA Saline (Soultz) FRA 1971 00:52:59 M35 57 428
341 Eichenlaub Marie-Paule Profil Alsace FRA 1969 00:53:04 W35 11 174
342 Rehm Michael Schoppentrinker Schweigen 1968 00:53:06 M35 58 260
343 Finck Isabelle Ingolsheim FRA 1969 00:53:07 W35 12 178
344 Ewinger Monika Kandler Katze 1958 00:53:08 W45 8 214
345 Bertsche Hardy Bellheimer Dingo 1961 00:53:08 M45 59 190
346 Hienzsch Angelika TSG Niefern 1968 00:53:12 W35 13 44
347 Zittel Christine TSV Reichenbach 1974 00:53:14 W30 4 700
348 Haefner Ulricke TVE Weiher 1959 00:53:16 W45 9 76
349 Müller Kerstin LLG Drei Buchen 1969 00:53:16 W35 14 636
350 Bernhard Hubert .. 1968 00:53:22 M35 59 491
351 Schmith Hans VLG Maximiliansau 1934 00:53:36 M70 2 687
352 Goeller Helmut memler.de 1958 00:53:37 M45 60 343
353 Hartmann Michael BSG Fiducia 1967 00:53:38 M35 60 83
354 Haubold Wilhelm TV Bad Bergzabern 1954 00:53:40 M50 36 123
355 Korn Elke TV Stelzenberg 1962 00:53:43 W40 6 250
356 Kern Gaby TSV Kandel 1973 00:53:47 W30 5 151
357 Knörr Günter LG MuLi 1947 00:53:49 M55 14 611
358 Poyet Andre Wissembourg FRA 1948 00:53:55 M55 15 430
359 Pibre Marie-Odile Wissembourg FRA 1957 00:53:57 W45 10 387
360 Zeu Marielle Wissembourg 1966 00:53:58 W40 7 692
361 Guckert Charles Schleithal FRA 1941 00:54:00 M65 9 295
362 Frey Martina TV Bad Bergzabern 1969 00:54:03 W35 15 101
363 Nagel Holger Motorradfreunde Kapellen 1968 00:54:04 M35 61 637
364 Cuntz Stefan Motorradfreunde Kapellen 1975 00:54:05 M30 24 548
365 Heintz Silvio Kapsweyer 1965 00:54:16 M40 65 377
366 Strasser Ansgar Kapsweyer 1962 00:54:17 M40 66 376
367 Keiser Eric Langensoultzbach FRA 1952 00:54:20 M50 37 383
368 Bingler Stefan Bad Bergzabern 1960 00:54:24 M45 61 367
369 Maier Barbara Bischweier 1968 00:54:25 W35 16 71
370 Gettel Claudia Tuttlingen 1976 00:54:25 W30 6 415
371 Mayer Simon LAC Dahn 1996 00:54:26 MJB 11 518
372 Koch Michael LG Leinfelden-Echterdingen 1962 00:54:27 M40 67 216
373 Flos Gerda TV Bad Bergzabern 1960 00:54:32 W45 11 106
374 Gettel Werner Pleisweiler-Oberhofen 1944 00:54:38 M60 9 414
375 Krafft Gisela Göttingen 1961 00:54:41 W45 12 246
376 Hanss Erich TV Bad Bergzabern 1956 00:54:42 M50 38 121
377 Schädler Gisela TV Hatzenbühl 1957 00:54:46 W45 13 416
378 Kwapis Christian Stadt Karlsruhe 1950 00:54:47 M55 16 644
379 Weigand Klaus LT Südwest Karlsruhe 1950 00:54:49 M55 17 408
380 Ritter Arno MiRO LT 1939 00:54:52 M65 10 605
381 Bitzer Bärbel TV Bad Bergzabern 1964 00:54:55 W40 8 102
382 Wegmann Markus LLG Drei Buchen 1962 00:55:01 M40 68 621
383 Bettendorf Sina TV Haueneberstein 1980 00:55:03 WHK 5 369
384 Raab Harald mein-erster-marathon.de 1958 00:55:03 M45 62 355
385 Klink Ralf TSV Goddelau 1965 00:55:06 M40 69 339
386 Pfister Denise Soultz sous Forets FRA 1963 00:55:07 W40 9 315
387 Pailloux Denis INA Schaeffler FRA 1952 00:55:08 M50 39 314
388 Klaeber Hubert Leonberg 1949 00:55:10 M55 18 607
389 Steuert Anneliese mein-erster-marathon.de 1956 00:55:14 W50 4 363
390 Moster Bruno TSG Niefern 1945 00:55:17 M60 10 47
391 Frey Irmgard LAC Insheim 1954 00:55:18 W50 5 489
392 Grupp Rainer LT Karlsruhe 1966 00:55:29 M40 70 454
393 Drumm Karl Ludwig MiRO LT 1940 00:55:30 M65 11 347
394 Herrel Jürgen SV Kork 1960 00:55:31 M45 63 448
395 Legland Jean-Marc ASL Rugby Lauterbourg FRA 1966 00:55:32 M40 71 528
396 Butterling Bernd TV Bad Bergzabern 1939 00:55:33 M65 12 127
397 Doerr Didier Seltz FRA 1969 00:55:38 M35 62 659
398 Keller Madeleine ANA FC JAB FRA 1949 00:55:39 W55 3 471
399 Nickum Alfons LG Kapellen-Drusweiler 1952 00:55:42 M50 40 654
400 Herrmann Regina TV Herxheim 1960 00:55:44 W45 14 63
401 Pfaff Jens Steinfeld 1978 00:55:49 MHK 21 81
402 Weisbrod-Rapp Simone Freckenfeld 1976 00:55:54 W30 7 95
403 Rapp Thorsten Freckenfeld 1977 00:55:54 MHK 22 96
404 Metz Bernhard TV Bad Bergzabern 1961 00:55:57 M45 64 336
405 Meyer Dominik SV Oberotterbach 1992 00:55:59 MJB 12 552
406 Knoll Maren Steinweiler 1978 00:56:02 WHK 6 445
407 Knittel Daniele Oberhoffen les Wissemb FRA 1958 00:56:14 W45 15 307
408 Simon Florian SV Oberotterbach 1993 00:56:15 MJB 13 553
409 Olsiewicz Michael VFL Bellheim 1952 00:56:17 M50 41 469
410 Haber Karlheinz VFL Bellheim 1953 00:56:18 M50 42 470
411 Zinn Marco mein-erster-marathon.de 1973 00:56:18 M30 25 356
412 Westrich Raimund TV Hauenstein 1950 00:56:19 M55 19 340
413 Sers Christel Vita Parc Stuttgart 1936 00:56:24 W70 1 40
414 Knoll Friedrich Steinweiler 1953 00:56:27 M50 43 204
415 Philipps Veronique Niederroedern FRA 1973 00:56:28 W30 8 561
416 Kästner Jochen LG Rülzheim 1979 00:56:34 MHK 23 510
417 Kuntz Patrick HaltDichFitLine.de 1971 00:56:36 M35 63 274
418 Walther Katharina SV Freistett 1964 00:56:37 W40 10 465
419 Kupitz Bernd TSV Fuerfeld 1945 00:56:38 M60 11 52
420 Rothhaar Martin PSV Pirmasens 1952 00:56:39 M50 44 440
421 Doll Günter LLG Drei Buchen 1936 00:56:40 M70 3 138
422 Nawrath Brigitte mein-erster-marathon.de 1962 00:56:46 W40 11 353
423 Frei-Raab Petra mein-erster-marathon.de 1962 00:56:48 W40 12 354
424 Merkle Michael Feuerwehr Münchweiler 1966 00:56:49 M40 72 253
425 Masur Kai SV Oberotterbach 1992 00:56:50 MJB 14 546
426 Miksch Maria LAC Insheim 1962 00:56:51 W40 13 438
427 Reinemuth Elke LAC Insheim 1965 00:56:55 W40 14 439
428 Miksch Peter LAC Insheim 1955 00:56:55 M50 45 504
429 Williams Vincent Claremore - USA USA 1974 00:56:56 M30 26 648
430 Burkhard Bernd LG SV Klingenmünster 1954 00:56:57 M50 46 647
431 Cronauer Torsten Feuerwehr Münchweiler 1969 00:56:57 M35 64 251
432 Helfrich Heiko Feuerwehr Münchweiler 1970 00:56:58 M35 65 252
433 Mahrenholz Detlef Ettlingen 1939 00:56:59 M65 13 393
434 Krafft Marianne Stuttgart 1958 00:57:00 W45 16 222
435 Labarelle Simone Wissembourg FRA 1964 00:57:10 W40 15 309
436 Reinhardt Helga TV Bad Bergzabern 1954 00:57:12 W50 6 108
437 Oster Werner Altenstadt FRA 1956 00:57:13 M50 47 381
438 Wegmann Jürgen Schwanheim 1976 00:57:13 M30 27 380
439 Anthoni Jean Marc Burstner FRA 1962 00:57:17 M40 73 163
440 Dorn Kay TV Bad Bergzabern 1967 00:57:19 M35 66 100
441 Koehler Natalie Riedseltz FRA 1968 00:57:20 W35 17 308
442 Böhm Manfred TV Bad Bergzabern 1938 00:57:22 M65 14 643
443 Linck Sebastien AS CPAM Strasbourg FRA 1984 00:57:27 MHK 24 427
444 Fischer Nina Kapsweyer 1983 00:57:34 WHK 7 524
445 Ringleb Stefan Pfaffenrot 1975 00:57:35 M30 28 675
446 Bettendorf Lea TV Haueneberstein 1961 00:57:40 W45 17 379
447 Bettendorf Dieter TV Haueneberstein 1956 00:57:41 M50 48 378
448 Ring Werner TV Rheinzabern 1959 00:57:42 M45 65 462
449 Held Ulla LLG Drei Buchen 1962 00:57:44 W40 16 256
450 Fischer Marlene KSV-LWT-Kevelaer 1962 00:57:47 W40 17 405
451 Kennel Pascal Riedseltz FRA 1964 00:57:47 M40 74 304
452 Linder Ralf Kandel 1969 00:57:48 M35 67 407
453 Joerger Stephane Seebach FRA 1970 00:57:49 M35 68 562
454 Burgel Sandrine SG Stern Rastatt 1967 00:57:51 W35 18 418
455 Zaiss Achim TG Ötigheim 1958 00:58:05 M45 66 208
456 Städtler Joachim TV Rheinzabern 1956 00:58:07 M50 49 467
457 Schalck Denis Wissembourg FRA 1961 00:58:08 M45 67 658
458 Walther Reinhold Schweigen-Rechtenbach 1963 00:58:12 M40 75 699
459 Bentz Harald FJ 1200 1963 00:58:12 M40 76 557
460 Maser Ekkahard TSG Niefern 1964 00:58:15 M40 77 232
461 Meyer Gustl TV Bad Bergzabern 1945 00:58:20 M60 12 148
462 Blum Werner memler.de 1958 00:58:21 M45 68 457
463 Kaub Jürgen Pf. Kletterer 1967 00:58:24 M35 69 653
464 Tittes Torsten mein-erster-marathon.de 1974 00:58:25 M30 29 352
465 Moebs Jean ANA Lauterbourg FRA 1955 00:58:32 M50 50 604
466 Knappe Dieter Box Club eV 1953 00:58:35 M50 51 410
467 Steinthaler Claudia LC Aalener Spion 1969 00:58:37 W35 19 197
468 Dueborgdioe Jürgen TV Bad Bergzabern 1961 00:58:41 M45 69 141
469 Rehberg Michael Speyer 1967 00:58:46 M35 70 261
470 Henkenhaf Laura Karlsruhe 1988 00:58:49 WJA 2 249
471 Lauer Jean Philippe Burstner FRA 1969 00:58:50 M35 71 162
472 Gerber Alain Stapem Offshore FRA 1966 00:59:00 M40 78 164
473 Gerber Jean-Marc Stapem Offshore FRA 1967 00:59:01 M35 72 188
474 Schmitt Jürgen Mainz 05 1964 00:59:02 M40 79 564
475 Zerr Sandrine OH Morsbronn FRA 1969 00:59:05 W35 20 267
476 Karl Ludwig TUS Schaidt 1939 00:59:08 M65 15 618
477 Schaefer Lothar Überholverbot Mannheim 1944 00:59:09 M60 13 395
478 Eberle Hildegard Viernheim 1949 00:59:10 W55 4 396
479 Mohr Rolf DJK Feudenheim 1956 00:59:11 M50 52 649
480 Kaltz Marlene LG Schwanheim 1950 00:59:12 W55 5 496
481 Kaltz Norbert LG Schwanheim 1951 00:59:13 M55 20 498
482 Steuert Günter mein-erster-marathon.de 1949 00:59:16 M55 21 364
483 Reichelt Ralf TV Eutingen 1972 00:59:24 M30 30 91
484 Held Oskar LLG Drei Buchen 1947 00:59:35 M55 22 255
485 Halipret Margolle Marie-Noel Puss-running FRA 1961 00:59:37 W45 18 451
486 Ernst Friedrich LLG Drei Buchen 1939 00:59:38 M65 16 221
487 Janson Beate TV Bad Bergzabern 1950 00:59:45 W55 6 109
488 Wuest Gerhard LLG Drei Buchen 1939 00:59:45 M65 17 382
489 Sandmeier Helga LAC Insheim 1958 00:59:47 W45 19 437
490 Pollok-Lefebvre Sigrid SV Freistett 1955 00:59:59 W50 7 394
491 Schwarzmüller Hans LG Schwanheim 1964 01:00:03 M40 80 497
492 Koffler Gabriele VLG Maximiliansau 1962 01:00:05 W40 18 194
493 Hagedorn Helmut LG Eschwinkel 1955 01:00:13 M50 53 490
494 Kornhas Andreas Karlsruhe 1980 01:00:15 MHK 25 265
495 Krafft Eckehard Stuttgart 1961 01:00:16 M45 70 245
496 Rohwer Heike Ettlingen 1949 01:00:18 W55 7 86
497 Kulke Simone mein-erster-marathon.de 1980 01:00:26 WHK 8 152
498 Hanss Max Germsersheim 1996 01:00:31 MJB 15 697
499 Hanss Holger Germsersheim 1963 01:00:32 M40 81 696
500 Brucker Stefan Speyer 1965 01:00:38 M40 82 225
501 Lembke Olaf Berlin 1962 01:00:40 M40 83 27
502 Henkenhaf Rainer mein-erster-marathon.de 1955 01:00:44 M50 54 349
503 Weißelberg Katharina Kalkar 1957 01:00:48 W45 20 244
504 Koernicke Regina TV Eutingen 1963 01:00:48 W40 19 371
505 Frieland Rainer TV Rheinau 1933 01:00:50 M70 4 193
506 Lieth Willi Sinsheim 1949 01:00:55 M55 23 212
507 Wiedemann Jürgen SSC Karlsruhe 1944 01:00:56 M60 14 657
508 Hannes Heike Turnerbund 1959 01:01:03 W45 21 402
509 Voigt Maria Turnerbund 1949 01:01:04 W55 8 401
510 Schoelch Martin Niederotterbach 1965 01:01:04 M40 84 375
511 Bisch Viola SG Stern Gaggenau 1970 01:01:14 W35 21 205
512 Hatzenbühler Bernd Niederotterbach 1965 01:01:16 M40 85 374
513 Küsters Gertrud SG Stern 1958 01:01:18 W45 22 674
514 Starck Sabine TV Bad Bergzabern 1963 01:01:24 W40 20 103
515 Gast Josef TV Bad Bergzabern 1964 01:01:25 M40 86 114
516 Tyrolt Doris TV Murrhardt 1962 01:01:27 W40 21 630
517 Meyerhöffer Philipp SV Oberotterbach 1992 01:01:37 MJB 16 551
518 Tritschler Roger Durmersheim 1967 01:01:40 M35 73 403
519 Frank Andrea VLG Maximiliansau 1966 01:01:59 W40 22 202
520 Bayer Marie-Louise TV Bad Bergzabern 1946 01:02:16 W60 4 110
521 Semmelsberger Anette Landau 1969 01:02:39 W35 22 38
522 Poyet Marlene Wissembourg FRA 1950 01:03:03 W55 9 431
523 Wenzel Jana LG Leinfelden-Echterdingen 1965 01:03:08 W40 23 217
524 Schöffel Inge LG Pfinztal 1952 01:03:25 W50 8 283
525 Akbaba Nesli Karlsruhe 1980 01:03:26 WHK 9 342
526 Martin Gabi Pirmasens 1962 01:03:34 W40 24 154
527 Meyer-Reinartz Mathieu Schweigen-Rechtenbach 1992 01:03:46 MJB 17 397
528 Cuntz Sebastian Oberotterbach 1991 01:03:47 MJB 18 689
529 Beyer Axel Karlsruhe 1969 01:03:48 M35 74 128
530 Imo Peter ASV Landau 1939 01:03:53 M65 18 494
531 Dospil Eva FCG Landau 1960 01:03:56 W45 23 192
532 Dospil Bernhard FCG Landau 1960 01:03:57 M45 71 191
533 Schmidt Michael Karlsruhe-Rüppurr 1955 01:03:58 M50 55 400
534 Rohwer Claus Ettlingen 1944 01:04:06 M60 15 85
535 Cremel Jaques Lingolsheim FRA 1942 01:04:14 M60 16 523
536 Boettcher Ute Rheinau 1963 01:04:16 W40 25 69
537 Wendelmuth Inge TV Bad Bergzabern 1943 01:04:17 W60 5 99
538 Pfeifer Ursula LG Rülzheim 1965 01:04:22 W40 26 606
539 Guckert Marina Schleithal FRA 1983 01:04:24 WHK 10 296
540 Mücke Heiko Bad Bergzabern 1977 01:04:37 MHK 26 702
541 Krauth Alexandra Bad Bergzabern 1973 01:04:38 W30 9 704
542 Hammer Judith LG Rülzheim 1963 01:04:39 W40 27 556
543 Seelinger Hugo LG Rülzheim 1935 01:04:40 M70 5 136
544 Kiefer Inge AVG Reisen Ettlingen 1945 01:04:40 W60 6 569
545 Unser-Nad Amalija mein-erster-marathon.de 1961 01:04:42 W45 24 360
546 Lerley Daniel Profil Alsace FRA 1955 01:05:02 M50 56 177
547 Cordary Christine Petit-Rederching FRA 1972 01:05:23 W30 10 673
548 Dahm Uwe Schweigen-Rechtenbach 1958 01:05:25 M45 72 147
549 Wieland Corinna Karlsruhe 1972 01:05:26 W30 11 223
550 von Hahn Philipp KSC Gmünden 1928 01:05:43 M75 1 39
551 Zutavern Günter .. 1945 01:05:45 M60 17 481
552 Bersch Susanne Box Club eV 1971 01:05:48 W35 23 411
553 Wecker Petra Baden-Baden 1969 01:05:52 W35 24 70
554 Reichert Manfred LT Ettlingen 1936 01:06:31 M70 6 36
555 Enderle Volker Pleisweiler-Oberhofen 1964 01:06:33 M40 87 84
556 Hantke Marina Rechtenbach 1993 01:06:52 WJB 1 346
557 Beck Yvonne RAC Wissembourg 1992 01:06:54 WJB 2 684
558 Zehnder Gisela memler.de 1941 01:06:55 W65 1 550
559 Harz-Paulus Annette Edenkoben 1966 01:06:58 W40 28 129
560 Simek Hildegard Karlsruhe 1957 01:07:11 W45 25 701
561 Jaekel Stephanie Heidelberg 1983 01:07:24 WHK 11 615
562 Paul Lena TC Bad Bergzabern 1996 01:07:46 WJB 3 501
563 Paul Uschi Bad Bergzabern 1964 01:07:47 W40 29 502
564 Heußmann Ines Gotha 1963 01:08:13 W40 30 156
565 Sander Giovanni Gleishorbach 1941 01:08:14 M65 19 157
566 Burhenne Monika mein-erster-marathon.de 1953 01:08:15 W50 9 358
567 Körber Manuela Leimersheim 1974 01:08:18 W30 12 399
568 Reichert Astrid LT Ettlingen 1942 01:08:22 W60 7 35
569 Kniesel Rita LG Rülzheim 1952 01:08:28 W50 10 134
570 Ruppert Kirsten mein-erster-marathon.de 1972 01:08:31 W30 13 365
571 Rohde Bärbel TV Bad Bergzabern 1970 01:08:40 W35 25 57
572 Rohde Christopher TV Bad Bergzabern 1967 01:08:41 M35 75 58
573 Moser Joachim TV Bad Bergzabern 1970 01:08:42 M35 76 585
574 Topac Nahide mein-erster-marathon.de 1976 01:08:47 W30 14 361
575 Schmidt Angela mein-erster-marathon.de 1959 01:08:47 W45 26 357
576 Ernst Josefine LLG Drei Buchen 1951 01:08:59 W55 10 220
577 Brauer Heidi TV Bad Bergzabern 1953 01:09:16 W50 11 90
578 Brauer Ernst TV Bad Bergzabern 1952 01:09:17 M50 57 89
579 Schwarz Elena Kandel 1972 01:09:38 W30 15 264
580 Moraru Bogdan Mannheim 1975 01:09:39 M30 31 263
581 Maier-Collin Corinna Karlsruhe 1974 01:09:57 W30 16 275
582 Stephan Michaela Schnuffler Karlsruhe 1965 01:10:11 W40 31 230
583 Korz Karlheinz LT Insheim 1956 01:10:25 M50 58 468
584 Speck Kirsten Durmersheim 1973 01:10:27 W30 17 370
585 Maurer Rosemarie SG Stern Gaggenau 1951 01:10:56 W55 11 639
586 Fischer Bärbel TV Bad Bergzabern 1955 01:10:57 W50 12 97
587 Hübner Ursula PSV Saarbrücken 1962 01:10:59 W40 32 541
588 Weicherding Helmut TV Bad Bergzabern 1960 01:10:59 M45 73 542
589 Braun Rainer TV Bad Bergzabern 1955 01:11:12 M50 59 122
590 Krapf Roland .. 1946 01:11:20 M60 18 479
591 Kreissl Rainer memler.de 1955 01:11:58 M50 60 458
592 Longeray Guillaume Illkirch-Graffenstaden FRA 1979 01:16:13 MHK 27 189
593 Merlet Valerie Illkirch-Graffenstaden FRA 1976 01:16:13 W30 18 182
594 Pfenninger Inge Fit + Fun Niefern 1940 01:16:21 W65 2 45
595 Dubac Ingeborg LT Ettlingen 1936 01:17:42 W70 2 139
596 Sers Manfred Vita Parc Stuttgart 1933 01:18:46 M70 7 41
597 Beck Anna TV Bad Bergzabern 1996 01:20:53 WJB 4 686
598 Beck Hubert MiRO LT 1967 01:20:54 M35 77 685
599 Gretz Ute Heidelsheim-Baden 1972 01:23:26 W30 19 67
600 Hutz Hermann TVE Weiher 1942 01:23:30 M60 19 80
601 Potschka-Herrmann Marion TV Bad Bergzabern 1952 01:23:31 W50 13 98